Time;durP1;ratioP1;P1;durP2;ratioP2;P2;SDS_P1;SDS_P2;PMS_P1;PMS_P2;Temp;Humidity;BMP_temperature;BMP_pressure;BME280_temperature;BME280_humidity;BME280_pressure;Samples;Min_cycle;Max_cycle;Signal;HPM_P1;HPM_P2
2022/01/02 00:00:19;;;;;;;12.80;7.30;;;;;;;;;;5073614;28;20744;-56
2022/01/02 00:02:49;;;;;;;10.90;7.93;;;;;;;;;;5074191;28;20436;-56
2022/01/02 00:05:15;;;;;;;11.23;7.60;;;;;;;;;;5074066;28;20406;-56
2022/01/02 00:07:42;;;;;;;8.07;7.30;;;;;;;;;;5089441;28;20410;-62
2022/01/02 00:10:09;;;;;;;9.40;7.80;;;;;;;;;;5074013;28;20879;-55
2022/01/02 00:12:35;;;;;;;18.70;8.23;;;;;;;;;;5073646;28;20411;-55
2022/01/02 00:15:06;;;;;;;8.50;7.67;;;;;;;;;;5073575;28;20474;-54
2022/01/02 00:17:32;;;;;;;8.07;7.30;;;;;;;;;;5073808;28;20464;-56
2022/01/02 00:20:09;;;;;;;9.67;7.37;;;;;;;;;;5073467;28;20857;-57
2022/01/02 00:22:37;;;;;;;12.80;8.53;;;;;;;;;;5073435;28;20942;-57
2022/01/02 00:25:08;;;;;;;9.10;7.97;;;;;;;;;;5073444;28;20458;-56
2022/01/02 00:27:38;;;;;;;12.50;7.60;;;;;;;;;;5073302;28;20407;-55
2022/01/02 00:30:05;;;;;;;7.57;6.77;;;;;;;;;;5073373;28;20414;-57
2022/01/02 00:32:32;;;;;;;9.40;7.00;;;;;;;;;;5088760;28;20493;-58
2022/01/02 00:35:00;;;;;;;9.93;7.50;;;;;;;;;;5073293;28;20467;-55
2022/01/02 00:37:26;;;;;;;9.03;7.63;;;;;;;;;;5073243;28;20532;-58
2022/01/02 00:39:52;;;;;;;8.03;7.07;;;;;;;;;;5073174;28;20445;-54
2022/01/02 00:42:25;;;;;;;13.10;7.90;;;;;;;;;;5073309;28;20411;-54
2022/01/02 00:44:59;;;;;;;8.83;6.87;;;;;;;;;;5072948;28;20506;-57
2022/01/02 00:47:37;;;;;;;8.10;6.53;;;;;;;;;;5073095;28;20482;-54
2022/01/02 00:50:20;;;;;;;7.70;6.93;;;;;;;;;;5072911;28;20767;-53
2022/01/02 00:52:49;;;;;;;10.07;6.50;;;;;;;;;;5073297;28;20410;-53
2022/01/02 00:55:19;;;;;;;8.67;7.77;;;;;;;;;;5073106;28;20429;-53
2022/01/02 00:57:48;;;;;;;10.97;6.97;;;;;;;;;;5073272;28;20759;-55
2022/01/02 01:00:15;;;;;;;9.90;7.43;;;;;;;;;;5072910;28;20407;-55
2022/01/02 01:02:45;;;;;;;8.60;7.70;;;;;;;;;;5088488;28;20411;-59
2022/01/02 01:05:15;;;;;;;7.60;6.90;;;;;;;;;;5072808;28;20452;-56
2022/01/02 01:07:41;;;;;;;13.60;7.00;;;;;;;;;;5072599;28;20402;-55
2022/01/02 01:10:11;;;;;;;8.43;7.17;;;;;;;;;;5072169;28;20402;-54
2022/01/02 01:12:37;;;;;;;7.50;6.80;;;;;;;;;;5072665;28;20406;-55
2022/01/02 01:15:05;;;;;;;8.67;7.07;;;;;;;;;;5072522;28;20470;-54
2022/01/02 01:17:31;;;;;;;9.50;7.20;;;;;;;;;;5072419;28;20417;-56
2022/01/02 01:19:58;;;;;;;10.73;7.07;;;;;;;;;;5072614;28;20473;-55
2022/01/02 01:22:24;;;;;;;7.60;6.80;;;;;;;;;;5072450;28;20894;-56
2022/01/02 01:24:50;;;;;;;8.50;6.97;;;;;;;;;;5072621;28;20825;-56
2022/01/02 01:27:16;;;;;;;7.63;6.93;;;;;;;;;;5088068;28;20418;-54
2022/01/02 01:29:42;;;;;;;8.73;7.40;;;;;;;;;;5088170;28;20438;-55
2022/01/02 01:32:09;;;;;;;12.77;7.20;;;;;;;;;;5072330;28;20398;-56
2022/01/02 01:34:36;;;;;;;8.33;7.30;;;;;;;;;;5072277;28;20473;-55
2022/01/02 01:37:02;;;;;;;7.63;6.93;;;;;;;;;;5072266;28;20418;-56
2022/01/02 01:39:28;;;;;;;8.90;6.97;;;;;;;;;;5072384;28;20421;-56
2022/01/02 01:41:56;;;;;;;7.43;6.50;;;;;;;;;;5072178;28;20975;-56
2022/01/02 01:44:38;;;;;;;8.10;7.20;;;;;;;;;;5072611;28;20415;-59
2022/01/02 01:47:04;;;;;;;8.30;6.70;;;;;;;;;;5072316;28;20471;-55
2022/01/02 01:49:30;;;;;;;7.80;6.90;;;;;;;;;;5087734;28;20423;-56
2022/01/02 01:51:56;;;;;;;7.27;6.57;;;;;;;;;;5072200;28;20411;-55
2022/01/02 01:54:23;;;;;;;7.87;6.90;;;;;;;;;;5071941;28;21053;-57
2022/01/02 01:56:51;;;;;;;8.30;6.70;;;;;;;;;;5072272;28;20403;-52
2022/01/02 01:59:17;;;;;;;6.93;6.30;;;;;;;;;;5072439;28;20494;-53
2022/01/02 02:01:43;;;;;;;7.70;6.57;;;;;;;;;;5072193;28;20407;-57
2022/01/02 02:04:09;;;;;;;7.80;6.90;;;;;;;;;;5072040;28;20767;-54
2022/01/02 02:06:36;;;;;;;6.77;6.27;;;;;;;;;;5072117;28;20455;-57
2022/01/02 02:09:03;;;;;;;7.10;6.40;;;;;;;;;;5072018;28;20410;-56
2022/01/02 02:11:29;;;;;;;7.47;6.70;;;;;;;;;;5087497;28;20415;-56
2022/01/02 02:13:56;;;;;;;9.37;5.63;;;;;;;;;;5087435;28;20473;-60
2022/01/02 02:16:23;;;;;;;6.60;6.10;;;;;;;;;;5071807;28;20411;-58
2022/01/02 02:18:49;;;;;;;7.40;6.63;;;;;;;;;;5072176;28;20415;-54
2022/01/02 02:21:15;;;;;;;8.97;6.37;;;;;;;;;;5072038;28;20503;-56
2022/01/02 02:23:43;;;;;;;6.63;6.23;;;;;;;;;;5076085;28;20506;-54
2022/01/02 02:26:09;;;;;;;8.10;6.30;;;;;;;;;;5091444;28;20505;-55
2022/01/02 02:28:35;;;;;;;7.20;6.33;;;;;;;;;;5091247;28;20469;-56
2022/01/02 02:31:01;;;;;;;8.70;6.50;;;;;;;;;;5076051;28;20487;-55
2022/01/02 02:33:27;;;;;;;8.03;7.23;;;;;;;;;;5075402;28;20565;-55
2022/01/02 02:35:54;;;;;;;6.23;5.70;;;;;;;;;;5075527;28;20409;-54
2022/01/02 02:38:20;;;;;;;7.10;6.40;;;;;;;;;;5075694;28;20854;-57
2022/01/02 02:40:47;;;;;;;10.13;6.10;;;;;;;;;;5091019;28;20422;-56
2022/01/02 02:43:26;;;;;;;7.00;6.00;;;;;;;;;;5075569;28;20444;-58
2022/01/02 02:51:33;;;;;;;13.80;5.93;;;;;;;;;;5075525;28;20475;-56
2022/01/02 02:53:59;;;;;;;6.60;5.40;;;;;;;;;;5074955;28;20481;-54
2022/01/02 02:56:29;;;;;;;11.20;6.30;;;;;;;;;;5090700;28;20406;-57
2022/01/02 02:58:56;;;;;;;8.97;6.20;;;;;;;;;;5074908;28;20972;-54
2022/01/02 03:01:23;;;;;;;8.50;5.43;;;;;;;;;;5074993;28;20438;-56
2022/01/02 03:03:49;;;;;;;6.97;6.37;;;;;;;;;;5075193;28;20809;-54
2022/01/02 03:06:16;;;;;;;7.50;5.67;;;;;;;;;;5075073;28;20406;-56
2022/01/02 03:08:43;;;;;;;5.47;5.07;;;;;;;;;;5074893;28;20760;-56
2022/01/02 03:11:13;;;;;;;6.97;6.27;;;;;;;;;;5075110;28;20418;-55
2022/01/02 03:13:40;;;;;;;6.47;5.83;;;;;;;;;;5074883;28;20466;-54
2022/01/02 03:16:06;;;;;;;5.97;5.47;;;;;;;;;;5074873;28;20436;-55
2022/01/02 03:18:32;;;;;;;8.50;5.97;;;;;;;;;;5074617;28;20415;-56
2022/01/02 03:20:58;;;;;;;6.93;6.10;;;;;;;;;;5074688;28;20489;-55
2022/01/02 03:23:24;;;;;;;6.33;5.60;;;;;;;;;;5090087;28;20842;-57
2022/01/02 03:25:50;;;;;;;9.73;6.47;;;;;;;;;;5074416;28;20498;-55
2022/01/02 03:28:16;;;;;;;8.13;6.10;;;;;;;;;;5090242;28;20411;-53
2022/01/02 03:30:42;;;;;;;6.53;6.03;;;;;;;;;;5074384;28;20421;-57
2022/01/02 03:33:09;;;;;;;5.90;5.47;;;;;;;;;;5074120;28;20847;-53
2022/01/02 03:35:35;;;;;;;8.87;6.63;;;;;;;;;;5074385;28;20486;-55
2022/01/02 03:38:01;;;;;;;6.30;5.80;;;;;;;;;;5074418;28;20411;-57
2022/01/02 03:40:27;;;;;;;8.27;6.07;;;;;;;;;;5074298;28;20407;-54
2022/01/02 03:42:54;;;;;;;9.10;6.03;;;;;;;;;;5074276;28;20414;-54
2022/01/02 03:45:20;;;;;;;7.90;6.33;;;;;;;;;;5074433;28;20413;-53
2022/01/02 03:47:46;;;;;;;6.40;5.80;;;;;;;;;;5089895;28;20429;-55
2022/01/02 03:50:12;;;;;;;7.27;6.47;;;;;;;;;;5074019;28;20399;-55
2022/01/02 03:52:38;;;;;;;6.93;6.23;;;;;;;;;;5074016;28;21025;-54
2022/01/02 03:55:04;;;;;;;8.63;6.70;;;;;;;;;;5073848;28;20466;-54
2022/01/02 03:57:30;;;;;;;6.20;5.70;;;;;;;;;;5074038;28;20508;-54
2022/01/02 03:59:56;;;;;;;6.87;6.20;;;;;;;;;;5072706;28;20425;-56
2022/01/02 04:02:22;;;;;;;6.63;5.93;;;;;;;;;;5073925;28;20403;-55
2022/01/02 04:04:48;;;;;;;7.87;6.70;;;;;;;;;;5089439;28;20480;-56
2022/01/02 04:07:14;;;;;;;9.50;7.40;;;;;;;;;;5073896;28;20406;-56
2022/01/02 04:09:40;;;;;;;11.13;7.00;;;;;;;;;;5073786;28;20891;-55
2022/01/02 04:12:06;;;;;;;7.13;6.43;;;;;;;;;;5073817;28;20438;-54
2022/01/02 04:14:32;;;;;;;9.07;6.57;;;;;;;;;;5073664;28;20462;-54
2022/01/02 04:16:58;;;;;;;7.70;6.90;;;;;;;;;;5073605;28;20456;-54
2022/01/02 04:19:24;;;;;;;14.43;7.20;;;;;;;;;;5073456;28;20900;-55
2022/01/02 04:21:50;;;;;;;14.70;7.47;;;;;;;;;;5073470;28;20807;-56
2022/01/02 04:24:16;;;;;;;8.80;7.43;;;;;;;;;;5073616;28;20415;-54
2022/01/02 04:26:42;;;;;;;9.63;7.40;;;;;;;;;;5073359;28;20407;-54
2022/01/02 04:29:09;;;;;;;12.37;7.43;;;;;;;;;;5073288;28;20414;-54
2022/01/02 04:31:35;;;;;;;10.47;6.97;;;;;;;;;;5088774;28;20419;-55
2022/01/02 04:34:01;;;;;;;8.10;6.83;;;;;;;;;;5073563;28;20531;-53
2022/01/02 04:36:27;;;;;;;7.27;6.50;;;;;;;;;;5073398;28;20410;-55
2022/01/02 04:38:53;;;;;;;9.47;7.60;;;;;;;;;;5073516;28;20423;-55
2022/01/02 04:41:19;;;;;;;9.23;7.60;;;;;;;;;;5073385;28;20891;-55
2022/01/02 04:43:45;;;;;;;8.17;7.37;;;;;;;;;;5073352;28;20425;-54
2022/01/02 04:46:11;;;;;;;9.10;8.07;;;;;;;;;;5072564;28;20472;-54
2022/01/02 04:48:37;;;;;;;9.80;8.03;;;;;;;;;;5088513;28;20424;-54
2022/01/02 04:51:03;;;;;;;12.67;7.90;;;;;;;;;;5088405;28;20984;-56
2022/01/02 04:53:30;;;;;;;13.47;8.07;;;;;;;;;;5072897;28;20453;-54
2022/01/02 04:55:56;;;;;;;12.43;8.27;;;;;;;;;;5073098;28;20509;-55
2022/01/02 04:58:22;;;;;;;10.83;8.10;;;;;;;;;;5072886;28;20514;-54
2022/01/02 05:00:48;;;;;;;11.17;8.60;;;;;;;;;;5073108;28;20494;-55
2022/01/02 05:03:14;;;;;;;9.93;7.77;;;;;;;;;;5072756;28;20407;-55
2022/01/02 05:05:40;;;;;;;10.47;8.27;;;;;;;;;;5072542;28;20882;-53
2022/01/02 05:08:06;;;;;;;8.83;7.87;;;;;;;;;;5072716;28;20447;-53
2022/01/02 05:10:32;;;;;;;7.90;7.00;;;;;;;;;;5072544;28;20445;-55
2022/01/02 05:12:58;;;;;;;10.90;8.20;;;;;;;;;;5072454;28;20406;-53
2022/01/02 05:15:24;;;;;;;10.23;8.50;;;;;;;;;;5072352;28;20419;-55
2022/01/02 05:17:50;;;;;;;11.60;7.87;;;;;;;;;;5072359;28;20461;-53
2022/01/02 05:20:16;;;;;;;8.83;7.43;;;;;;;;;;5072665;28;20477;-55
2022/01/02 05:22:42;;;;;;;8.60;7.80;;;;;;;;;;5072377;28;20421;-54
2022/01/02 05:25:08;;;;;;;10.27;8.00;;;;;;;;;;5072326;28;20411;-54
2022/01/02 05:27:34;;;;;;;8.10;7.37;;;;;;;;;;5072148;28;20911;-54
2022/01/02 05:30:00;;;;;;;8.73;7.47;;;;;;;;;;5072175;28;20403;-55
2022/01/02 05:32:26;;;;;;;8.13;7.33;;;;;;;;;;5072124;28;20403;-56
2022/01/02 05:34:52;;;;;;;8.50;7.37;;;;;;;;;;5072080;28;20527;-53
2022/01/02 05:37:18;;;;;;;10.40;8.00;;;;;;;;;;5072622;28;20403;-55
2022/01/02 05:39:44;;;;;;;10.70;7.40;;;;;;;;;;5087666;28;20479;-54
2022/01/02 05:42:10;;;;;;;9.03;7.73;;;;;;;;;;5072106;28;20490;-54
2022/01/02 05:44:36;;;;;;;8.70;7.07;;;;;;;;;;5071953;28;20443;-53
2022/01/02 05:47:02;;;;;;;10.40;7.40;;;;;;;;;;5071970;28;20410;-54
2022/01/02 05:49:28;;;;;;;8.63;7.73;;;;;;;;;;5072031;28;20983;-54
2022/01/02 05:51:54;;;;;;;9.10;7.23;;;;;;;;;;5071848;28;20414;-54
2022/01/02 05:54:20;;;;;;;8.00;7.20;;;;;;;;;;5071909;28;20466;-56
2022/01/02 05:56:46;;;;;;;10.50;7.83;;;;;;;;;;5072066;28;20413;-54
2022/01/02 05:59:12;;;;;;;8.30;7.03;;;;;;;;;;5071825;28;20450;-57
2022/01/02 06:01:38;;;;;;;11.50;7.50;;;;;;;;;;5071948;28;20834;-54
2022/01/02 06:04:04;;;;;;;9.73;7.80;;;;;;;;;;5071911;28;20441;-56
2022/01/02 06:06:30;;;;;;;9.43;7.53;;;;;;;;;;5072121;28;20406;-57
2022/01/02 06:08:56;;;;;;;8.73;7.57;;;;;;;;;;5071979;28;20489;-53
2022/01/02 06:11:22;;;;;;;9.30;7.67;;;;;;;;;;5087477;28;20407;-54
2022/01/02 06:13:48;;;;;;;13.67;7.60;;;;;;;;;;5072056;28;20543;-54
2022/01/02 06:16:14;;;;;;;8.33;7.53;;;;;;;;;;5071967;28;20895;-55
2022/01/02 06:18:40;;;;;;;8.67;7.53;;;;;;;;;;5071907;28;20407;-57
2022/01/02 06:21:06;;;;;;;8.77;7.87;;;;;;;;;;5071621;28;20458;-53
2022/01/02 06:23:32;;;;;;;11.60;8.07;;;;;;;;;;5071816;28;20767;-54
2022/01/02 06:25:58;;;;;;;8.87;7.50;;;;;;;;;;5071812;28;20493;-54
2022/01/02 06:28:24;;;;;;;9.47;7.60;;;;;;;;;;5071740;28;20415;-55
2022/01/02 06:30:50;;;;;;;8.13;7.17;;;;;;;;;;5071703;28;20449;-54
2022/01/02 06:33:16;;;;;;;10.10;7.30;;;;;;;;;;5071814;28;20464;-54
2022/01/02 06:35:42;;;;;;;8.83;7.87;;;;;;;;;;5071455;28;20414;-56
2022/01/02 06:38:13;;;;;;;9.47;6.93;;;;;;;;;;5071575;28;20403;-58
2022/01/02 06:40:40;;;;;;;7.53;6.80;;;;;;;;;;5071519;28;20431;-53
2022/01/02 06:43:06;;;;;;;12.00;7.50;;;;;;;;;;5071760;28;20444;-54
2022/01/02 06:45:32;;;;;;;11.03;7.40;;;;;;;;;;5071590;28;20427;-54
2022/01/02 06:47:59;;;;;;;11.17;7.13;;;;;;;;;;5071544;28;20899;-58
2022/01/02 06:50:25;;;;;;;7.70;6.93;;;;;;;;;;5071449;28;20411;-56
2022/01/02 06:52:51;;;;;;;9.20;7.37;;;;;;;;;;5071380;28;20471;-54
2022/01/02 06:55:17;;;;;;;9.87;7.30;;;;;;;;;;5071397;28;20558;-61
2022/01/02 06:57:43;;;;;;;9.70;7.27;;;;;;;;;;5071310;28;20414;-58
2022/01/02 07:00:11;;;;;;;8.17;7.10;;;;;;;;;;5071447;28;20472;-60
2022/01/02 07:02:37;;;;;;;9.47;7.23;;;;;;;;;;5071197;28;20411;-58
2022/01/02 07:05:03;;;;;;;7.83;6.67;;;;;;;;;;5086835;28;20415;-58
2022/01/02 07:07:29;;;;;;;8.10;7.30;;;;;;;;;;5071480;28;20507;-60
2022/01/02 07:09:55;;;;;;;7.53;6.73;;;;;;;;;;5074928;28;20410;-56
2022/01/02 07:12:23;;;;;;;7.47;6.77;;;;;;;;;;5074792;28;20418;-61
2022/01/02 07:14:49;;;;;;;10.67;7.10;;;;;;;;;;5074890;28;20474;-57
2022/01/02 07:17:15;;;;;;;10.27;7.60;;;;;;;;;;5074966;28;20399;-58
2022/01/02 07:19:41;;;;;;;7.93;6.97;;;;;;;;;;5074513;28;20950;-54
2022/01/02 07:22:07;;;;;;;10.20;7.30;;;;;;;;;;5090269;28;20972;-55
2022/01/02 07:24:34;;;;;;;8.30;6.70;;;;;;;;;;5074702;28;20418;-56
2022/01/02 07:27:00;;;;;;;7.47;6.80;;;;;;;;;;5074943;28;20403;-54
2022/01/02 07:29:26;;;;;;;6.90;6.30;;;;;;;;;;5074523;28;20422;-55
2022/01/02 07:31:53;;;;;;;8.27;6.63;;;;;;;;;;5090050;28;20438;-58
2022/01/02 07:34:19;;;;;;;7.40;6.80;;;;;;;;;;5074596;28;20470;-58
2022/01/02 07:36:45;;;;;;;7.87;7.17;;;;;;;;;;5090479;28;20494;-56
2022/01/02 07:39:15;;;;;;;7.20;6.60;;;;;;;;;;5074154;28;20446;-55
2022/01/02 07:41:41;;;;;;;8.00;7.17;;;;;;;;;;5074263;28;20418;-55
2022/01/02 07:44:08;;;;;;;7.53;6.70;;;;;;;;;;5074496;28;20499;-55
2022/01/02 07:46:34;;;;;;;7.40;6.60;;;;;;;;;;5074068;28;20436;-55
2022/01/02 07:49:00;;;;;;;8.57;7.10;;;;;;;;;;5074217;28;20415;-55
2022/01/02 07:51:26;;;;;;;8.00;6.80;;;;;;;;;;5073946;28;20924;-54
2022/01/02 07:53:52;;;;;;;7.60;6.80;;;;;;;;;;5073879;28;20473;-55
2022/01/02 07:56:18;;;;;;;6.27;5.80;;;;;;;;;;5074172;28;20415;-58
2022/01/02 07:58:44;;;;;;;7.00;6.40;;;;;;;;;;5074116;28;20410;-55
2022/01/02 08:01:10;;;;;;;6.97;6.10;;;;;;;;;;5073888;28;20437;-54
2022/01/02 08:03:36;;;;;;;7.00;6.40;;;;;;;;;;5074077;28;20828;-58
2022/01/02 08:06:03;;;;;;;6.73;6.23;;;;;;;;;;5073777;28;20399;-55
2022/01/02 08:08:29;;;;;;;8.10;6.60;;;;;;;;;;5089218;28;20403;-56
2022/01/02 08:10:55;;;;;;;6.90;6.30;;;;;;;;;;5072349;28;20406;-54
2022/01/02 08:13:21;;;;;;;6.50;6.00;;;;;;;;;;5073847;28;20456;-54
2022/01/02 08:15:49;;;;;;;7.83;7.03;;;;;;;;;;5073722;28;20449;-57
2022/01/02 08:18:15;;;;;;;9.93;6.00;;;;;;;;;;5073876;28;20399;-55
2022/01/02 08:20:45;;;;;;;7.80;7.10;;;;;;;;;;5072436;28;20465;-54
2022/01/02 08:23:12;;;;;;;7.10;6.40;;;;;;;;;;5073383;28;20919;-54
2022/01/02 08:25:38;;;;;;;6.87;6.27;;;;;;;;;;5073593;28;20415;-55
2022/01/02 08:28:04;;;;;;;7.67;6.97;;;;;;;;;;5073265;28;20537;-58
2022/01/02 08:30:30;;;;;;;7.10;6.40;;;;;;;;;;5073425;28;20409;-55
2022/01/02 08:32:56;;;;;;;9.00;6.33;;;;;;;;;;5073165;28;20398;-57
2022/01/02 08:35:22;;;;;;;6.90;6.20;;;;;;;;;;5073326;28;20539;-53
2022/01/02 08:37:48;;;;;;;6.90;6.30;;;;;;;;;;5088870;28;20414;-56
2022/01/02 08:40:15;;;;;;;7.20;6.13;;;;;;;;;;5073374;28;20764;-56
2022/01/02 08:42:41;;;;;;;7.03;6.07;;;;;;;;;;5073126;28;20433;-55
2022/01/02 08:45:07;;;;;;;6.57;6.00;;;;;;;;;;5073137;28;20407;-57
2022/01/02 08:47:33;;;;;;;6.73;6.10;;;;;;;;;;5072985;28;20452;-57
2022/01/02 08:49:59;;;;;;;6.30;5.80;;;;;;;;;;5073013;28;20935;-57
2022/01/02 08:52:25;;;;;;;5.77;5.27;;;;;;;;;;5073132;28;20418;-55
2022/01/02 08:54:52;;;;;;;5.83;5.33;;;;;;;;;;5072763;28;20474;-54
2022/01/02 08:57:18;;;;;;;7.77;5.50;;;;;;;;;;5073024;28;20403;-58
2022/01/02 08:59:44;;;;;;;5.90;5.40;;;;;;;;;;5072695;28;20484;-55
2022/01/02 09:02:10;;;;;;;6.23;5.63;;;;;;;;;;5072578;28;20414;-56
2022/01/02 09:04:36;;;;;;;5.97;5.47;;;;;;;;;;5072607;28;20411;-58
2022/01/02 09:07:02;;;;;;;6.13;5.50;;;;;;;;;;5072575;28;20410;-55
2022/01/02 09:09:29;;;;;;;5.73;5.23;;;;;;;;;;5072853;28;20419;-55
2022/01/02 09:11:55;;;;;;;6.33;5.50;;;;;;;;;;5072450;28;20899;-56
2022/01/02 09:14:21;;;;;;;7.53;5.57;;;;;;;;;;5072447;28;20497;-57
2022/01/02 09:16:47;;;;;;;5.07;4.70;;;;;;;;;;5072676;28;20472;-55
2022/01/02 09:19:14;;;;;;;5.93;5.43;;;;;;;;;;5072376;28;20765;-55
2022/01/02 09:21:40;;;;;;;7.67;5.33;;;;;;;;;;5072221;28;20446;-56
2022/01/02 09:24:06;;;;;;;5.97;5.50;;;;;;;;;;5072392;28;20410;-54
2022/01/02 09:26:32;;;;;;;6.47;5.53;;;;;;;;;;5072228;28;20407;-55
2022/01/02 09:28:58;;;;;;;6.90;6.30;;;;;;;;;;5072431;28;20446;-57
2022/01/02 09:31:24;;;;;;;9.90;7.90;;;;;;;;;;5087452;28;20411;-56
2022/01/02 09:33:50;;;;;;;7.13;6.43;;;;;;;;;;5072144;28;20481;-55
2022/01/02 09:36:17;;;;;;;7.40;6.70;;;;;;;;;;5072190;28;20399;-55
2022/01/02 09:38:43;;;;;;;8.13;7.30;;;;;;;;;;5072103;28;20446;-55
2022/01/02 09:41:10;;;;;;;9.60;7.90;;;;;;;;;;5087702;28;20407;-57
2022/01/02 09:43:36;;;;;;;7.67;6.20;;;;;;;;;;5071839;28;20947;-54
2022/01/02 09:46:03;;;;;;;7.60;6.90;;;;;;;;;;5072198;28;20414;-56
2022/01/02 09:48:29;;;;;;;14.80;6.60;;;;;;;;;;5072321;28;20423;-58
2022/01/02 09:50:56;;;;;;;7.20;6.50;;;;;;;;;;5087308;28;20433;-56
2022/01/02 09:53:23;;;;;;;8.47;7.07;;;;;;;;;;5071920;28;20457;-57
2022/01/02 09:55:51;;;;;;;12.20;7.60;;;;;;;;;;5072055;28;20422;-55
2022/01/02 09:58:18;;;;;;;7.97;6.83;;;;;;;;;;5071868;28;20425;-56
2022/01/02 10:00:46;;;;;;;8.90;6.60;;;;;;;;;;5071797;28;20544;-56
2022/01/02 10:03:12;;;;;;;7.70;6.60;;;;;;;;;;5071794;28;20531;-56
2022/01/02 10:06:00;;;;;;;7.07;6.43;;;;;;;;;;5072116;28;20411;-55
2022/01/02 10:08:27;;;;;;;7.17;6.47;;;;;;;;;;5072171;28;20418;-55
2022/01/02 10:11:17;;;;;;;6.43;5.83;;;;;;;;;;5087595;28;20906;-55
2022/01/02 10:13:43;;;;;;;6.60;6.10;;;;;;;;;;5071818;28;20612;-57
2022/01/02 10:16:28;;;;;;;7.00;6.37;;;;;;;;;;5071952;28;20431;-55
2022/01/02 10:18:55;;;;;;;8.37;6.33;;;;;;;;;;5071765;28;20927;-55
2022/01/02 10:21:27;;;;;;;6.73;5.97;;;;;;;;;;5071582;28;20458;-55
2022/01/02 10:24:11;;;;;;;7.07;6.47;;;;;;;;;;5071840;28;20498;-54
2022/01/02 10:26:37;;;;;;;7.70;6.50;;;;;;;;;;5071575;28;20403;-56
2022/01/02 10:29:10;;;;;;;7.33;6.57;;;;;;;;;;5071654;28;20406;-54
2022/01/02 10:31:36;;;;;;;8.30;7.50;;;;;;;;;;5071817;28;20402;-55
2022/01/02 10:34:02;;;;;;;7.20;6.60;;;;;;;;;;5071596;28;20551;-55
2022/01/02 10:36:32;;;;;;;8.23;6.77;;;;;;;;;;5071617;28;20756;-55
2022/01/02 10:38:59;;;;;;;7.53;6.93;;;;;;;;;;5071543;28;20415;-55
2022/01/02 10:41:33;;;;;;;9.40;7.07;;;;;;;;;;5071186;28;20407;-54
2022/01/02 10:44:16;;;;;;;9.40;7.50;;;;;;;;;;5074482;28;20498;-55
2022/01/02 10:47:02;;;;;;;6.70;6.10;;;;;;;;;;5075423;28;20406;-56
2022/01/02 10:49:46;;;;;;;6.70;6.13;;;;;;;;;;5075484;28;20498;-55
2022/01/02 10:52:31;;;;;;;7.20;6.50;;;;;;;;;;5090827;28;20411;-53
2022/01/02 10:54:59;;;;;;;7.57;6.80;;;;;;;;;;5075221;28;20504;-54
2022/01/02 10:57:25;;;;;;;7.30;6.70;;;;;;;;;;5090863;28;20414;-55
2022/01/02 10:59:55;;;;;;;6.67;6.07;;;;;;;;;;5075218;28;20415;-55
2022/01/02 11:02:23;;;;;;;7.30;6.70;;;;;;;;;;5075176;28;20410;-56
2022/01/02 11:04:50;;;;;;;9.97;8.33;;;;;;;;;;5075221;28;20798;-56
2022/01/02 11:07:20;;;;;;;7.30;6.53;;;;;;;;;;5090769;28;20447;-57
2022/01/02 11:09:46;;;;;;;8.53;6.53;;;;;;;;;;5075429;28;20422;-58
2022/01/02 11:12:13;;;;;;;7.37;6.67;;;;;;;;;;5074985;28;20410;-56
2022/01/02 11:14:40;;;;;;;10.00;6.27;;;;;;;;;;5074862;28;20561;-55
2022/01/02 11:17:06;;;;;;;9.23;6.50;;;;;;;;;;5074973;28;20956;-56
2022/01/02 11:19:32;;;;;;;7.57;6.87;;;;;;;;;;5090209;28;20521;-55
2022/01/02 11:21:58;;;;;;;6.83;6.10;;;;;;;;;;5074713;28;20414;-55
2022/01/02 11:24:27;;;;;;;6.90;6.20;;;;;;;;;;5074678;28;20899;-56
2022/01/02 11:26:55;;;;;;;6.97;6.20;;;;;;;;;;5074682;28;20407;-57
2022/01/02 11:29:26;;;;;;;7.80;6.47;;;;;;;;;;5074700;28;20501;-57
2022/01/02 11:31:52;;;;;;;6.97;6.37;;;;;;;;;;5074431;28;21021;-56
2022/01/02 11:34:33;;;;;;;7.57;6.77;;;;;;;;;;5074764;28;20569;-57
2022/01/02 11:37:11;;;;;;;7.50;6.83;;;;;;;;;;5074530;28;20460;-58
2022/01/02 11:39:54;;;;;;;7.97;6.20;;;;;;;;;;5074265;28;20926;-57
2022/01/02 11:42:35;;;;;;;8.80;7.23;;;;;;;;;;5074566;28;20403;-55
2022/01/02 11:45:02;;;;;;;10.37;7.37;;;;;;;;;;5074543;28;20818;-55
2022/01/02 11:47:39;;;;;;;7.23;6.30;;;;;;;;;;5074728;28;20946;-57
2022/01/02 11:50:05;;;;;;;10.30;6.63;;;;;;;;;;5074522;28;20883;-57
2022/01/02 11:52:33;;;;;;;8.07;6.30;;;;;;;;;;5089824;28;20548;-55
2022/01/02 11:54:59;;;;;;;11.03;6.40;;;;;;;;;;5074463;28;20898;-58
2022/01/02 11:57:28;;;;;;;6.20;5.70;;;;;;;;;;5074158;28;20750;-53
2022/01/02 11:59:56;;;;;;;6.67;6.03;;;;;;;;;;5074133;28;20406;-56
2022/01/02 12:02:23;;;;;;;8.27;6.93;;;;;;;;;;5074167;28;20759;-56
2022/01/02 12:05:11;;;;;;;8.37;7.40;;;;;;;;;;5074341;28;20411;-56
2022/01/02 12:07:45;;;;;;;8.10;7.37;;;;;;;;;;5074021;28;20441;-59
2022/01/02 12:10:17;;;;;;;8.00;6.90;;;;;;;;;;5074196;28;20809;-55
2022/01/02 12:12:58;;;;;;;7.50;6.70;;;;;;;;;;5073886;28;20478;-56
2022/01/02 12:15:25;;;;;;;8.23;6.60;;;;;;;;;;5073898;28;20557;-56
2022/01/02 12:18:06;;;;;;;10.23;6.10;;;;;;;;;;5073667;28;20422;-54
2022/01/02 12:20:50;;;;;;;7.83;6.37;;;;;;;;;;5073691;28;20458;-57
2022/01/02 12:23:35;;;;;;;8.97;6.53;;;;;;;;;;5073778;28;20418;-55
2022/01/02 12:26:03;;;;;;;7.50;6.63;;;;;;;;;;5073866;28;20772;-54
2022/01/02 12:28:30;;;;;;;7.90;7.20;;;;;;;;;;5073549;28;20419;-56
2022/01/02 12:30:56;;;;;;;10.43;6.53;;;;;;;;;;5073226;28;20872;-54
2022/01/02 12:33:26;;;;;;;8.30;6.80;;;;;;;;;;5073162;28;20464;-55
2022/01/02 12:35:52;;;;;;;12.97;7.27;;;;;;;;;;5073587;28;20863;-57
2022/01/02 12:38:18;;;;;;;10.83;7.40;;;;;;;;;;5073130;28;20409;-52
2022/01/02 12:40:44;;;;;;;9.23;6.57;;;;;;;;;;5073069;28;20410;-59
2022/01/02 12:43:11;;;;;;;10.93;7.00;;;;;;;;;;5073016;28;20405;-52
2022/01/02 12:45:37;;;;;;;11.70;7.43;;;;;;;;;;5088484;28;20464;-54
2022/01/02 12:48:03;;;;;;;8.23;6.73;;;;;;;;;;5073321;28;20407;-55
2022/01/02 12:50:30;;;;;;;7.80;7.00;;;;;;;;;;5072974;28;20410;-54
2022/01/02 12:52:58;;;;;;;7.33;6.73;;;;;;;;;;5073232;28;20418;-53
2022/01/02 12:55:24;;;;;;;8.50;7.30;;;;;;;;;;5073110;28;20466;-56
2022/01/02 12:57:51;;;;;;;9.97;7.37;;;;;;;;;;5072858;28;20406;-62
2022/01/02 13:00:22;;;;;;;9.37;6.83;;;;;;;;;;5072839;28;20411;-54
2022/01/02 13:02:52;;;;;;;7.33;6.63;;;;;;;;;;5073037;28;20449;-54
2022/01/02 13:05:18;;;;;;;7.77;7.07;;;;;;;;;;5072730;28;20454;-57
2022/01/02 13:07:46;;;;;;;9.27;6.57;;;;;;;;;;5072870;28;20425;-58
2022/01/02 13:10:15;;;;;;;7.50;6.70;;;;;;;;;;5072854;28;20418;-52
2022/01/02 13:12:41;;;;;;;7.30;6.40;;;;;;;;;;5071597;28;20406;-56
2022/01/02 13:15:12;;;;;;;6.67;6.10;;;;;;;;;;5072529;28;20468;-58
2022/01/02 13:17:44;;;;;;;7.03;6.33;;;;;;;;;;5072633;28;20433;-56
2022/01/02 13:20:15;;;;;;;7.57;6.87;;;;;;;;;;5072459;28;20474;-55
2022/01/02 13:22:42;;;;;;;12.77;6.53;;;;;;;;;;5072563;28;20415;-54
2022/01/02 13:25:10;;;;;;;7.90;6.80;;;;;;;;;;5072567;28;20472;-57
2022/01/02 13:27:47;;;;;;;9.30;7.13;;;;;;;;;;5072340;28;20398;-54
2022/01/02 13:30:16;;;;;;;7.27;6.57;;;;;;;;;;5072301;28;20434;-55
2022/01/02 13:32:43;;;;;;;6.70;6.00;;;;;;;;;;5072410;28;20403;-54
2022/01/02 13:35:10;;;;;;;6.77;6.17;;;;;;;;;;5072552;28;20538;-55
2022/01/02 13:37:40;;;;;;;7.70;6.30;;;;;;;;;;5072192;28;20755;-55
2022/01/02 13:40:08;;;;;;;10.03;6.67;;;;;;;;;;5072286;28;20406;-55
2022/01/02 13:42:44;;;;;;;6.60;6.00;;;;;;;;;;5072140;28;20460;-60
2022/01/02 13:45:11;;;;;;;6.53;5.97;;;;;;;;;;5072210;28;20413;-56
2022/01/02 13:47:38;;;;;;;6.57;5.97;;;;;;;;;;5072379;28;20422;-62
2022/01/02 13:50:05;;;;;;;7.93;6.00;;;;;;;;;;5072506;28;20755;-60
2022/01/02 13:52:31;;;;;;;6.33;5.60;;;;;;;;;;5072208;28;20934;-64
2022/01/02 13:55:10;;;;;;;6.60;6.07;;;;;;;;;;5072185;28;20623;-65
2022/01/02 13:57:36;;;;;;;6.70;6.10;;;;;;;;;;5072028;28;20843;-64
2022/01/02 14:00:17;;;;;;;6.87;6.30;;;;;;;;;;5072103;28;20806;-55
2022/01/02 14:02:43;;;;;;;6.20;5.70;;;;;;;;;;5072081;28;20406;-55
2022/01/02 14:05:09;;;;;;;6.00;5.50;;;;;;;;;;5072130;28;20422;-53
2022/01/02 14:07:36;;;;;;;9.67;5.57;;;;;;;;;;5087535;28;20421;-59
2022/01/02 14:10:05;;;;;;;6.10;5.60;;;;;;;;;;5072080;28;20419;-59
2022/01/02 14:12:33;;;;;;;6.63;5.70;;;;;;;;;;5071771;28;20917;-59
2022/01/02 14:15:08;;;;;;;7.43;5.90;;;;;;;;;;5071787;28;20470;-56
2022/01/02 14:17:34;;;;;;;6.20;5.70;;;;;;;;;;5072206;28;20402;-53
2022/01/02 14:20:02;;;;;;;6.13;5.60;;;;;;;;;;5075940;28;20462;-57
2022/01/02 14:22:28;;;;;;;6.40;5.70;;;;;;;;;;5075706;28;20407;-55
2022/01/02 14:24:56;;;;;;;6.43;5.93;;;;;;;;;;5076001;28;20418;-57
2022/01/02 14:27:23;;;;;;;5.90;5.40;;;;;;;;;;5075963;28;20475;-55
2022/01/02 14:29:49;;;;;;;7.07;6.27;;;;;;;;;;5076353;28;20407;-54
2022/01/02 14:32:16;;;;;;;5.93;5.40;;;;;;;;;;5091618;28;20417;-55
2022/01/02 14:34:42;;;;;;;6.63;6.03;;;;;;;;;;5074286;28;20561;-55
2022/01/02 14:37:08;;;;;;;6.60;6.10;;;;;;;;;;5091309;28;20410;-53
2022/01/02 14:39:35;;;;;;;6.83;5.93;;;;;;;;;;5075716;28;20460;-54
2022/01/02 14:42:01;;;;;;;5.20;4.90;;;;;;;;;;5075662;28;20402;-57
2022/01/02 14:44:26;;;;;;;7.00;6.30;;;;;;;;;;5075797;28;20414;-55
2022/01/02 14:46:53;;;;;;;6.50;6.00;;;;;;;;;;5090883;28;20415;-55
2022/01/02 14:49:19;;;;;;;6.10;5.60;;;;;;;;;;5091176;28;20422;-56